Aviation Digital Data Service (ADDS)

Output produced by METARs form (1012 UTC 04 December 2016)
found at http://aviationweather.gov/adds/metars/
 
KLFT 040953Z AUTO 14007KT 110V170 7SM RA BKN110 19/18 A2984 RMK AO2 LTG DSNT SE PRESFR SLP103 P0012 T01890183